Terminal Aerodrome Forecast
Issued by NWS

Home | Current Version | Previous Version | Text Only | Print | Product List | Glossary On
Versions: 1 2 3 4 5 6 7 8 9 10 11 12 13 14
000
FTUS42 KTAE 040539
TAFECP
TAF
KECP 040539Z 0406/0506 19005KT P6SM SKC
     FM041000 19005KT P6SM BKN020
     FM041600 24007KT P6SM SCT030 BKN200
     FM050000 19003KT P6SM BKN020=

USA.gov is the U.S. government's official web portal to all federal, state and local government web resources and services.